FVWN

Hwange National Park Airport

Hwange, Zimbabwe
METAR FVWN 240900Z 00000KT CAVOK 23/11 Q1024
Observed Flight Rules
May-24 @ 09:00 UTC (16 hours ago) Visual Flight Rules
Visibility Clouds
10,000+ meters
  • Clear skies
Temperatures Readings
Current 23°C / 73°F
Dewpoint 11°C / 52°F
Humidity 47%
Altimeter 30.24" Hg
Pressure 1024 hPa
Elevation 1077
METAR FVWN 240900Z 00000KT CAVOK 23/11 Q1024
Observed Flight Rules
May-24 @ 09:00 UTC
(16 hours ago)
VFR
Clouds
  • Clear skies
Temperature Dewpoint
23°C / 73°F 11°C / 52°F
Humidity Altimeter Pressure
47% 30.24" Hg 1024 hPa